Time;durP1;ratioP1;P1;durP2;ratioP2;P2;SDS_P1;SDS_P2;PMS_P1;PMS_P2;Temp;Humidity;BMP_temperature;BMP_pressure;BME280_temperature;BME280_humidity;BME280_pressure;Samples;Min_cycle;Max_cycle;Signal;HPM_P1;HPM_P2
2021/01/18 00:00:51;;;;;;;27.70;19.10;;;2.30;99.90;;;;;;5013095;28;20216;-77
2021/01/18 00:03:18;;;;;;;21.67;16.70;;;2.40;99.90;;;;;;5013790;28;20204;-74
2021/01/18 00:05:44;;;;;;;29.57;17.73;;;2.40;99.90;;;;;;5014046;28;20235;-85
2021/01/18 00:08:11;;;;;;;23.10;18.43;;;2.40;99.90;;;;;;5013829;28;20226;-83
2021/01/18 00:10:37;;;;;;;25.40;18.70;;;2.30;99.90;;;;;;5013835;28;20696;-82
2021/01/18 00:13:04;;;;;;;29.90;20.90;;;2.20;99.90;;;;;;5013799;28;20609;-74
2021/01/18 00:15:31;;;;;;;37.80;20.73;;;2.10;99.90;;;;;;5013870;28;20293;-76
2021/01/18 00:17:57;;;;;;;28.10;21.97;;;2.10;99.90;;;;;;5013581;28;20216;-72
2021/01/18 00:20:25;;;;;;;27.40;19.13;;;2.20;99.90;;;;;;5013583;28;20221;-83
2021/01/18 00:22:52;;;;;;;28.10;19.93;;;2.30;99.90;;;;;;5014426;28;20605;-73
2021/01/18 00:25:20;;;;;;;30.53;20.17;;;2.20;99.90;;;;;;5013601;28;20212;-74
2021/01/18 00:27:47;;;;;;;29.47;18.87;;;2.10;99.90;;;;;;5013906;28;20239;-83
2021/01/18 00:30:15;;;;;;;27.77;19.00;;;2.10;99.90;;;;;;5012799;28;20219;-83
2021/01/18 00:32:42;;;;;;;24.77;19.53;;;2.10;99.90;;;;;;5013184;28;20204;-77
2021/01/18 00:35:10;;;;;;;26.57;20.23;;;2.10;99.90;;;;;;5013154;28;20227;-77
2021/01/18 00:37:45;;;;;;;29.93;20.00;;;2.10;99.90;;;;;;5013672;28;20227;-75
2021/01/18 00:40:13;;;;;;;26.93;19.77;;;2.00;99.90;;;;;;4999857;28;20667;-82
2021/01/18 00:42:40;;;;;;;27.90;20.53;;;1.90;99.90;;;;;;5013661;28;20199;-76
2021/01/18 00:45:09;;;;;;;27.00;18.73;;;1.90;99.90;;;;;;5012694;28;20737;-84
2021/01/18 00:47:40;;;;;;;26.10;16.70;;;2.00;99.90;;;;;;5013225;28;20286;-84
2021/01/18 00:50:07;;;;;;;21.73;16.87;;;1.90;99.90;;;;;;5013172;28;20215;-81
2021/01/18 00:52:34;;;;;;;19.90;14.63;;;1.80;99.90;;;;;;5013490;28;20586;-75
2021/01/18 00:55:01;;;;;;;20.90;16.07;;;1.70;99.90;;;;;;5012513;28;20291;-84
2021/01/18 00:57:34;;;;;;;23.87;15.17;;;1.70;99.90;;;;;;5013227;28;20208;-74
2021/01/18 01:00:00;;;;;;;22.53;14.83;;;1.80;99.90;;;;;;5012099;28;20413;-76
2021/01/18 01:02:27;;;;;;;20.87;14.80;;;1.80;99.90;;;;;;5012954;28;20668;-83
2021/01/18 01:04:54;;;;;;;25.93;15.33;;;1.60;99.90;;;;;;5012874;28;20762;-74
2021/01/18 01:07:20;;;;;;;26.47;16.40;;;1.60;99.90;;;;;;5013257;28;20342;-83
2021/01/18 01:09:47;;;;;;;18.80;14.77;;;1.60;99.90;;;;;;5013122;28;20219;-77
2021/01/18 01:12:14;;;;;;;23.33;14.90;;;1.70;99.90;;;;;;5011237;28;20631;-82
2021/01/18 01:14:41;;;;;;;18.80;14.77;;;1.70;99.90;;;;;;5012381;28;20258;-74
2021/01/18 01:17:11;;;;;;;22.23;15.70;;;1.80;99.90;;;;;;5012013;28;20707;-83
2021/01/18 01:19:37;;;;;;;20.80;14.53;;;1.80;99.90;;;;;;5012938;28;20204;-77
2021/01/18 01:22:03;;;;;;;24.13;15.43;;;1.70;99.90;;;;;;5012231;28;20208;-77
2021/01/18 01:24:30;;;;;;;25.13;16.10;;;1.70;99.90;;;;;;5012603;28;20289;-76
2021/01/18 01:26:56;;;;;;;26.00;17.47;;;1.70;99.90;;;;;;5012301;28;20232;-83
2021/01/18 01:29:24;;;;;;;27.00;17.70;;;1.60;99.90;;;;;;5011991;28;20208;-79
2021/01/18 01:31:52;;;;;;;23.93;15.67;;;1.60;99.90;;;;;;5013065;28;20286;-83
2021/01/18 01:34:19;;;;;;;26.20;16.93;;;1.60;99.90;;;;;;5012107;28;20698;-80
2021/01/18 01:36:45;;;;;;;22.87;15.83;;;1.60;99.90;;;;;;5012497;28;20717;-83
2021/01/18 01:39:12;;;;;;;21.37;15.57;;;1.60;99.90;;;;;;5012375;28;20212;-82
2021/01/18 01:41:38;;;;;;;24.33;16.57;;;1.50;99.90;;;;;;5012196;28;20208;-85
2021/01/18 01:44:05;;;;;;;20.60;15.77;;;1.50;99.90;;;;;;5011922;28;20652;-86
2021/01/18 01:46:32;;;;;;;23.83;16.03;;;1.60;99.90;;;;;;5012432;28;20242;-85
2021/01/18 01:48:59;;;;;;;19.97;15.93;;;1.60;99.90;;;;;;5011816;28;20579;-85
2021/01/18 01:51:29;;;;;;;22.20;14.80;;;1.70;99.90;;;;;;5012401;28;20211;-82
2021/01/18 01:53:56;;;;;;;24.83;16.30;;;1.60;99.90;;;;;;5011941;28;20215;-83
2021/01/18 01:56:23;;;;;;;16.90;15.10;;;1.50;99.90;;;;;;5012483;28;20212;-81
2021/01/18 01:58:53;;;;;;;20.70;15.77;;;1.50;99.90;;;;;;5012364;28;20239;-77
2021/01/18 02:01:20;;;;;;;24.80;16.77;;;1.50;99.90;;;;;;5012193;28;20287;-75
2021/01/18 02:03:51;;;;;;;19.90;14.90;;;1.40;99.90;;;;;;5012221;28;20218;-84
2021/01/18 02:06:18;;;;;;;23.03;15.73;;;1.40;99.90;;;;;;5011634;28;20319;-73
2021/01/18 02:08:45;;;;;;;21.83;16.80;;;1.40;99.90;;;;;;5011609;28;20629;-75
2021/01/18 02:11:12;;;;;;;22.30;16.73;;;1.40;99.90;;;;;;5011477;28;20248;-76
2021/01/18 02:14:05;;;;;;;20.50;16.13;;;1.40;99.90;;;;;;5011387;28;20579;-83
2021/01/18 02:16:37;;;;;;;20.73;15.87;;;1.40;99.90;;;;;;5011490;28;20251;-80
2021/01/18 02:19:45;;;;;;;24.20;16.27;;;1.40;99.90;;;;;;5011068;28;20735;-73
2021/01/18 02:23:02;;;;;;;22.57;15.83;;;1.40;99.90;;;;;;5011080;28;20253;-73
2021/01/18 02:25:36;;;;;;;18.40;15.43;;;1.40;99.90;;;;;;5011398;28;20204;-72
2021/01/18 02:28:26;;;;;;;20.33;15.73;;;1.50;99.90;;;;;;5015733;28;20261;-88
2021/01/18 02:31:32;;;;;;;24.07;16.10;;;1.50;99.90;;;;;;5013309;28;20258;-75
2021/01/18 02:34:42;;;;;;;20.40;14.70;;;1.40;99.90;;;;;;5010480;28;20212;-78
2021/01/18 02:37:42;;;;;;;19.80;15.90;;;1.40;99.90;;;;;;5000882;28;20220;-89
2021/01/18 02:40:17;;;;;;;24.80;15.57;;;1.30;99.90;;;;;;4989496;28;20204;-73
2021/01/18 02:42:50;;;;;;;20.83;14.77;;;1.40;99.90;;;;;;5012115;28;20276;-81
2021/01/18 02:45:18;;;;;;;20.40;15.30;;;1.40;99.90;;;;;;5011818;28;20211;-88
2021/01/18 02:47:46;;;;;;;19.50;14.97;;;1.20;99.90;;;;;;5011156;28;20605;-83
2021/01/18 02:50:13;;;;;;;19.33;15.43;;;1.30;99.90;;;;;;5008916;28;20273;-79
2021/01/18 02:52:42;;;;;;;17.90;14.93;;;1.20;99.90;;;;;;5010304;28;20212;-84
2021/01/18 02:55:10;;;;;;;21.57;15.47;;;1.30;99.90;;;;;;5009604;28;20219;-83
2021/01/18 02:57:40;;;;;;;15.73;14.03;;;1.20;99.90;;;;;;5010897;28;20216;-74
2021/01/18 03:00:11;;;;;;;24.57;15.27;;;1.20;99.90;;;;;;5010847;28;20234;-84
2021/01/18 03:02:46;;;;;;;19.23;15.07;;;1.20;99.90;;;;;;5011125;28;20208;-81
2021/01/18 03:05:44;;;;;;;21.03;15.23;;;1.20;99.90;;;;;;5010764;28;20298;-83
2021/01/18 03:08:21;;;;;;;22.23;14.97;;;1.20;99.90;;;;;;4998084;28;20208;-83
2021/01/18 03:10:56;;;;;;;24.03;15.47;;;1.20;99.90;;;;;;5010797;28;20850;-84
2021/01/18 03:13:30;;;;;;;20.63;15.03;;;1.00;99.90;;;;;;5011220;28;20203;-74
2021/01/18 03:16:01;;;;;;;22.23;14.30;;;1.00;99.90;;;;;;4998774;28;20216;-78
2021/01/18 03:18:31;;;;;;;16.87;13.80;;;1.10;99.90;;;;;;5010773;28;20241;-83
2021/01/18 03:20:58;;;;;;;19.47;14.50;;;1.00;99.90;;;;;;5010011;28;20229;-86
2021/01/18 03:23:25;;;;;;;21.70;14.67;;;1.00;99.90;;;;;;5010704;28;20208;-85
2021/01/18 03:25:53;;;;;;;20.03;13.90;;;1.00;99.90;;;;;;5011030;28;20228;-77
2021/01/18 03:28:22;;;;;;;20.87;14.10;;;1.00;99.90;;;;;;5011026;28;20203;-77
2021/01/18 03:30:48;;;;;;;18.27;14.93;;;0.90;99.90;;;;;;5021995;28;20208;-81
2021/01/18 03:33:16;;;;;;;21.77;15.73;;;1.00;99.90;;;;;;5013381;28;20265;-82
2021/01/18 03:35:42;;;;;;;21.53;13.73;;;0.90;99.90;;;;;;5013168;28;20211;-83
2021/01/18 03:38:09;;;;;;;19.07;14.77;;;0.90;99.90;;;;;;5014505;28;20684;-84
2021/01/18 03:40:37;;;;;;;20.57;14.03;;;0.90;99.90;;;;;;5014296;28;20235;-82
2021/01/18 03:43:06;;;;;;;19.33;14.33;;;1.00;99.90;;;;;;5013715;28;20208;-83
2021/01/18 03:45:33;;;;;;;16.80;12.13;;;0.90;99.90;;;;;;5013906;28;20207;-76
2021/01/18 03:48:00;;;;;;;19.33;14.40;;;0.90;99.90;;;;;;5013990;28;20747;-82
2021/01/18 03:50:26;;;;;;;20.23;13.70;;;1.00;99.90;;;;;;5014407;28;20207;-82
2021/01/18 03:52:54;;;;;;;18.57;13.73;;;1.00;99.90;;;;;;5014172;28;20211;-77
2021/01/18 03:55:21;;;;;;;25.80;13.20;;;0.90;99.90;;;;;;5004140;28;20758;-82
2021/01/18 03:57:50;;;;;;;20.53;13.23;;;0.90;99.90;;;;;;5013884;28;20218;-80
2021/01/18 04:00:18;;;;;;;20.97;14.33;;;0.90;99.90;;;;;;5012411;28;20221;-79
2021/01/18 04:02:45;;;;;;;19.40;13.90;;;1.00;99.90;;;;;;5013394;28;20215;-80
2021/01/18 04:05:12;;;;;;;15.67;13.27;;;0.80;99.90;;;;;;5013836;28;20297;-79
2021/01/18 04:07:40;;;;;;;22.07;14.43;;;0.80;99.90;;;;;;5013707;28;20227;-82
2021/01/18 04:10:07;;;;;;;19.10;13.57;;;0.90;99.90;;;;;;5013860;28;20219;-78
2021/01/18 04:12:34;;;;;;;21.57;13.93;;;0.80;99.90;;;;;;5013874;28;20266;-82
2021/01/18 04:15:03;;;;;;;18.93;12.67;;;0.70;99.90;;;;;;5013808;28;20205;-75
2021/01/18 04:17:30;;;;;;;16.03;12.20;;;0.80;99.90;;;;;;5014193;28;20298;-83
2021/01/18 04:19:56;;;;;;;17.90;13.70;;;0.90;99.90;;;;;;5013418;28;20212;-74
2021/01/18 04:22:23;;;;;;;20.03;13.40;;;0.90;99.90;;;;;;5012383;28;20204;-73
2021/01/18 04:24:49;;;;;;;16.23;12.53;;;0.70;99.90;;;;;;5014035;28;20208;-78
2021/01/18 04:27:15;;;;;;;14.57;12.20;;;0.70;99.90;;;;;;5013167;28;20239;-83
2021/01/18 04:29:42;;;;;;;20.60;13.33;;;0.80;99.90;;;;;;5012637;28;20212;-76
2021/01/18 04:32:12;;;;;;;21.10;11.90;;;0.80;99.90;;;;;;5012538;28;20209;-83
2021/01/18 04:34:38;;;;;;;14.80;10.83;;;0.80;99.90;;;;;;5013687;28;20695;-79
2021/01/18 04:37:05;;;;;;;17.83;11.57;;;0.70;99.90;;;;;;5012916;28;20208;-83
2021/01/18 04:39:31;;;;;;;16.13;11.97;;;0.80;99.90;;;;;;5013244;28;20216;-76
2021/01/18 04:41:59;;;;;;;14.50;11.20;;;0.70;99.90;;;;;;5013280;28;20212;-83
2021/01/18 04:44:27;;;;;;;17.13;10.93;;;0.70;99.90;;;;;;5013117;28;20678;-84
2021/01/18 04:46:55;;;;;;;16.63;13.30;;;0.70;99.90;;;;;;5003987;28;20232;-83
2021/01/18 04:49:23;;;;;;;14.57;12.07;;;0.70;99.90;;;;;;5013524;28;20201;-81
2021/01/18 04:51:53;;;;;;;16.17;12.27;;;0.70;99.90;;;;;;5012595;28;20210;-85
2021/01/18 04:54:20;;;;;;;17.17;13.10;;;0.70;99.90;;;;;;5013050;28;20219;-84
2021/01/18 04:57:07;;;;;;;17.63;13.37;;;0.60;99.90;;;;;;5012860;28;20613;-78
2021/01/18 04:59:41;;;;;;;17.67;12.90;;;0.60;99.90;;;;;;5002256;28;20211;-82
2021/01/18 05:02:10;;;;;;;17.13;12.30;;;0.60;99.90;;;;;;5012187;28;20204;-84
2021/01/18 05:04:41;;;;;;;17.77;13.23;;;0.60;99.90;;;;;;5011259;28;20243;-85
2021/01/18 05:07:52;;;;;;;22.20;15.63;;;0.50;99.90;;;;;;5013174;28;20221;-81
2021/01/18 05:10:27;;;;;;;17.30;11.40;;;0.60;99.90;;;;;;5003954;28;20266;-78
2021/01/18 05:12:57;;;;;;;23.73;13.90;;;0.50;99.90;;;;;;5012771;28;20230;-78
2021/01/18 05:15:25;;;;;;;16.13;10.07;;;0.50;99.90;;;;;;5013012;28;20553;-81
2021/01/18 05:17:58;;;;;;;15.53;11.00;;;0.50;99.90;;;;;;5020691;28;20586;-76
2021/01/18 05:20:26;;;;;;;16.97;12.07;;;0.50;99.90;;;;;;5005141;28;20208;-84
2021/01/18 05:22:55;;;;;;;19.97;12.77;;;0.50;99.90;;;;;;5012688;28;20212;-73
2021/01/18 05:25:22;;;;;;;17.93;12.23;;;0.50;99.90;;;;;;5004426;28;20330;-79
2021/01/18 05:28:05;;;;;;;16.40;11.20;;;0.50;99.90;;;;;;5012522;28;20232;-77
2021/01/18 05:30:33;;;;;;;16.33;11.90;;;0.50;99.90;;;;;;5011937;28;20204;-81
2021/01/18 05:33:02;;;;;;;12.27;10.70;;;0.40;99.90;;;;;;5011412;28;20209;-81
2021/01/18 05:35:29;;;;;;;17.03;11.83;;;0.40;99.90;;;;;;5011806;28;20212;-82
2021/01/18 05:37:57;;;;;;;19.27;11.47;;;0.40;99.90;;;;;;5024835;28;20565;-79
2021/01/18 05:40:25;;;;;;;16.80;10.97;;;0.40;99.90;;;;;;5012246;28;20227;-75
2021/01/18 05:42:52;;;;;;;17.97;12.27;;;0.40;99.90;;;;;;5012072;28;20579;-76
2021/01/18 05:45:33;;;;;;;18.77;12.17;;;0.40;99.90;;;;;;5012007;28;20211;-76
2021/01/18 05:48:01;;;;;;;19.53;12.93;;;0.50;99.90;;;;;;5010892;28;20703;-81
2021/01/18 05:50:29;;;;;;;18.60;13.30;;;0.50;99.90;;;;;;5014509;28;20204;-76
2021/01/18 05:52:56;;;;;;;19.57;13.57;;;0.40;99.90;;;;;;5011763;28;20244;-77
2021/01/18 05:55:25;;;;;;;24.73;13.30;;;0.40;99.90;;;;;;5014682;28;20211;-76
2021/01/18 05:57:53;;;;;;;18.87;12.37;;;0.40;99.90;;;;;;5011850;28;20212;-81
2021/01/18 06:00:32;;;;;;;20.23;12.10;;;0.40;99.90;;;;;;5012440;28;20210;-85
2021/01/18 06:03:00;;;;;;;20.63;13.77;;;0.40;99.90;;;;;;5014192;28;20212;-90
2021/01/18 06:05:32;;;;;;;18.90;12.53;;;0.40;99.90;;;;;;5014770;28;20211;-88
2021/01/18 06:08:13;;;;;;;17.00;11.70;;;0.40;99.90;;;;;;5011521;28;20220;-81
2021/01/18 06:10:40;;;;;;;14.97;12.43;;;0.40;99.90;;;;;;5011815;28;20204;-79
2021/01/18 06:13:21;;;;;;;15.67;11.30;;;0.30;99.90;;;;;;5015790;28;20212;-91
2021/01/18 06:15:49;;;;;;;14.63;12.57;;;0.30;99.90;;;;;;5011970;28;20203;-91
2021/01/18 06:18:16;;;;;;;20.53;14.17;;;0.30;99.90;;;;;;5011688;28;20687;-91
2021/01/18 06:20:45;;;;;;;19.37;16.43;;;0.40;99.90;;;;;;5012573;28;20212;-76
2021/01/18 06:23:21;;;;;;;20.27;15.57;;;0.30;99.90;;;;;;5011318;28;20231;-76
2021/01/18 06:25:51;;;;;;;20.90;15.60;;;0.30;99.90;;;;;;5006109;28;20214;-89
2021/01/18 06:28:25;;;;;;;22.13;16.37;;;0.40;99.90;;;;;;5011672;28;20230;-74
2021/01/18 06:31:00;;;;;;;28.83;20.00;;;0.30;99.90;;;;;;5001279;28;20236;-77
2021/01/18 06:33:38;;;;;;;51.23;34.57;;;0.30;99.90;;;;;;5011415;28;20214;-81
2021/01/18 06:36:14;;;;;;;49.73;32.07;;;0.20;99.90;;;;;;5011677;28;20267;-76
2021/01/18 06:38:42;;;;;;;49.60;33.27;;;0.30;99.90;;;;;;5021575;28;20254;-85
2021/01/18 06:41:09;;;;;;;74.77;47.23;;;0.20;99.90;;;;;;5015826;28;20209;-83
2021/01/18 06:43:36;;;;;;;64.77;43.37;;;0.30;99.90;;;;;;5019405;28;20208;-80
2021/01/18 06:46:16;;;;;;;54.27;37.40;;;0.30;99.90;;;;;;5010595;28;20711;-76
2021/01/18 06:48:45;;;;;;;49.47;33.57;;;0.30;99.90;;;;;;5010893;28;20211;-77
2021/01/18 06:51:14;;;;;;;32.73;23.63;;;0.30;99.90;;;;;;5026810;28;20215;-80
2021/01/18 06:53:43;;;;;;;35.50;25.23;;;0.30;99.90;;;;;;5007567;28;20247;-80
2021/01/18 06:56:30;;;;;;;34.93;26.17;;;0.20;99.90;;;;;;5010627;28;20224;-84
2021/01/18 06:59:04;;;;;;;31.03;22.70;;;0.20;99.90;;;;;;5010298;28;20200;-75
2021/01/18 07:01:32;;;;;;;33.03;21.83;;;0.20;99.90;;;;;;5011672;28;20219;-83
2021/01/18 07:04:07;;;;;;;27.10;22.50;;;0.30;99.90;;;;;;5010283;28;20711;-83
2021/01/18 07:06:36;;;;;;;28.30;19.13;;;0.30;99.90;;;;;;5012715;28;20236;-82
2021/01/18 07:09:05;;;;;;;30.37;22.53;;;0.30;99.90;;;;;;5009366;28;20215;-84
2021/01/18 07:11:32;;;;;;;28.07;20.57;;;0.20;99.90;;;;;;5013839;28;20306;-79
2021/01/18 07:13:58;;;;;;;25.73;18.17;;;0.20;99.90;;;;;;5014299;28;20691;-83
2021/01/18 07:16:25;;;;;;;24.83;18.00;;;0.20;99.90;;;;;;5014746;28;20209;-79
2021/01/18 07:18:56;;;;;;;28.73;21.17;;;0.20;99.90;;;;;;5015041;28;20212;-76
2021/01/18 07:21:26;;;;;;;26.33;18.07;;;0.20;99.90;;;;;;5003404;28;20262;-74
2021/01/18 07:23:59;;;;;;;23.80;17.17;;;0.20;99.90;;;;;;5014736;28;20792;-74
2021/01/18 07:26:49;;;;;;;21.20;17.23;;;0.30;99.90;;;;;;5014462;28;20232;-82
2021/01/18 07:29:18;;;;;;;22.87;16.07;;;0.40;99.90;;;;;;5014127;28;20212;-83
2021/01/18 07:31:47;;;;;;;27.10;19.37;;;0.40;99.90;;;;;;5014112;28;20219;-80
2021/01/18 07:34:14;;;;;;;22.27;17.73;;;0.40;99.90;;;;;;5018117;28;20216;-79
2021/01/18 07:36:42;;;;;;;30.57;19.57;;;0.40;99.90;;;;;;5006381;28;20212;-80
2021/01/18 07:39:31;;;;;;;31.83;20.03;;;0.40;99.90;;;;;;5013861;28;20208;-75
2021/01/18 07:41:58;;;;;;;22.87;18.27;;;0.40;99.90;;;;;;5016267;28;20255;-79
2021/01/18 07:44:34;;;;;;;30.90;19.70;;;0.50;99.90;;;;;;5016855;28;20208;-79
2021/01/18 07:47:02;;;;;;;27.20;18.27;;;0.60;99.90;;;;;;5002661;28;20270;-80
2021/01/18 07:49:47;;;;;;;23.60;17.13;;;0.70;99.90;;;;;;5013566;28;20287;-79
2021/01/18 07:52:28;;;;;;;25.03;16.63;;;0.70;99.90;;;;;;5007659;28;20227;-75
2021/01/18 07:54:59;;;;;;;26.13;18.83;;;0.70;99.90;;;;;;5017096;28;20274;-82
2021/01/18 07:57:39;;;;;;;24.53;18.07;;;0.70;99.90;;;;;;5011982;28;20212;-81
2021/01/18 08:00:31;;;;;;;27.43;18.63;;;0.80;99.90;;;;;;5014482;28;20302;-76
2021/01/18 08:03:28;;;;;;;25.23;17.13;;;0.70;99.90;;;;;;5016531;28;20269;-78
2021/01/18 08:06:09;;;;;;;29.00;19.83;;;0.80;99.90;;;;;;5015073;28;20204;-82
2021/01/18 08:08:36;;;;;;;25.07;18.20;;;0.80;99.90;;;;;;5013931;28;20291;-81
2021/01/18 08:11:06;;;;;;;29.63;19.97;;;0.80;99.90;;;;;;5016501;28;20215;-78
2021/01/18 08:13:35;;;;;;;25.07;18.93;;;0.80;99.90;;;;;;5017674;28;20267;-81
2021/01/18 08:16:22;;;;;;;27.80;19.90;;;0.90;99.90;;;;;;5014731;28;20291;-81
2021/01/18 08:18:53;;;;;;;22.70;18.43;;;0.90;99.90;;;;;;5006942;28;20216;-74
2021/01/18 08:21:46;;;;;;;22.37;18.27;;;0.90;99.90;;;;;;5013671;28;20208;-82
2021/01/18 08:24:15;;;;;;;25.27;17.00;;;0.90;99.90;;;;;;5012645;28;20208;-74
2021/01/18 08:26:54;;;;;;;24.17;18.20;;;1.00;99.90;;;;;;5012973;28;20731;-70
2021/01/18 08:29:53;;;;;;;23.83;19.47;;;1.10;99.90;;;;;;5013469;28;20212;-77
2021/01/18 08:32:53;;;;;;;27.90;21.50;;;1.20;99.90;;;;;;4963858;28;20220;-77
2021/01/18 08:35:28;;;;;;;33.10;24.37;;;1.70;99.90;;;;;;5018454;28;20224;-79
2021/01/18 08:37:58;;;;;;;52.23;33.83;;;2.00;99.90;;;;;;5012019;28;20640;-75
2021/01/18 08:40:39;;;;;;;63.83;42.07;;;2.10;99.90;;;;;;5012673;28;20291;-76
2021/01/18 08:43:07;;;;;;;53.83;34.83;;;2.40;99.90;;;;;;5011466;28;20212;-76
2021/01/18 08:45:41;;;;;;;31.10;24.57;;;3.20;99.90;;;;;;5013180;28;20208;-75
2021/01/18 08:48:08;;;;;;;32.63;21.43;;;4.30;99.90;;;;;;5012141;28;20224;-76
2021/01/18 08:50:43;;;;;;;31.23;21.43;;;5.80;99.90;;;;;;5007568;28;20227;-76
2021/01/18 08:53:32;;;;;;;28.70;21.10;;;6.30;99.90;;;;;;5012029;28;20286;-76
2021/01/18 08:56:00;;;;;;;27.93;21.47;;;6.30;99.90;;;;;;5002534;28;20221;-77
2021/01/18 08:58:42;;;;;;;29.43;19.87;;;6.60;99.90;;;;;;5011999;28;20212;-75
2021/01/18 09:01:11;;;;;;;25.67;19.47;;;7.20;99.90;;;;;;5011920;28;20649;-74
2021/01/18 09:03:37;;;;;;;25.23;17.20;;;8.00;99.90;;;;;;5012221;28;20208;-75
2021/01/18 09:06:05;;;;;;;22.57;18.10;;;8.00;99.90;;;;;;5000202;28;20621;-75
2021/01/18 09:08:31;;;;;;;23.57;18.07;;;8.10;99.90;;;;;;5012272;28;20691;-75
2021/01/18 09:10:59;;;;;;;35.93;17.67;;;8.80;99.90;;;;;;5014376;28;20694;-77
2021/01/18 09:13:27;;;;;;;25.97;18.70;;;9.60;99.90;;;;;;5019108;28;20262;-76
2021/01/18 09:15:56;;;;;;;22.13;16.27;;;11.30;99.90;;;;;;5016561;28;20204;-75
2021/01/18 09:18:25;;;;;;;26.17;15.53;;;11.40;99.90;;;;;;5012597;28;20668;-74
2021/01/18 09:20:53;;;;;;;21.70;15.07;;;11.40;99.90;;;;;;5012429;28;20212;-76
2021/01/18 09:23:20;;;;;;;22.70;15.20;;;9.80;99.90;;;;;;5012646;28;20216;-79
2021/01/18 09:25:47;;;;;;;20.03;14.60;;;9.70;99.90;;;;;;5012157;28;20204;-79
2021/01/18 09:28:15;;;;;;;28.63;18.40;;;10.30;99.90;;;;;;5011538;28;20235;-78
2021/01/18 09:30:44;;;;;;;27.37;19.63;;;10.20;99.90;;;;;;5012122;28;20373;-77
2021/01/18 09:33:12;;;;;;;25.97;17.27;;;9.90;99.90;;;;;;5011471;28;20244;-78
2021/01/18 09:35:40;;;;;;;19.20;15.77;;;10.90;99.90;;;;;;5019149;28;20293;-78
2021/01/18 09:38:07;;;;;;;25.10;15.87;;;11.30;99.90;;;;;;5017704;28;20266;-79
2021/01/18 09:40:35;;;;;;;16.83;11.07;;;10.70;99.90;;;;;;5011806;28;20208;-80
2021/01/18 09:43:02;;;;;;;17.40;10.23;;;10.80;99.90;;;;;;5007401;28;20215;-79
2021/01/18 09:45:29;;;;;;;18.20;10.17;;;12.00;99.90;;;;;;5011712;28;20204;-79
2021/01/18 09:48:01;;;;;;;19.40;10.87;;;12.40;99.90;;;;;;5011686;28;20240;-80
2021/01/18 09:50:28;;;;;;;20.53;11.90;;;13.50;99.90;;;;;;5014388;28;20203;-80
2021/01/18 09:52:55;;;;;;;11.27;9.30;;;14.00;99.90;;;;;;5012320;28;20211;-77
2021/01/18 09:55:24;;;;;;;21.93;11.97;;;13.40;99.90;;;;;;5004584;28;20209;-80
2021/01/18 09:57:57;;;;;;;17.53;10.37;;;12.60;99.90;;;;;;4998953;28;20200;-78
2021/01/18 10:00:27;;;;;;;16.37;9.07;;;11.70;99.90;;;;;;5003353;28;20706;-77
2021/01/18 10:02:55;;;;;;;22.60;10.48;;;12.30;99.90;;;;;;4993535;28;20209;-78
2021/01/18 10:05:26;;;;;;;16.20;9.93;;;13.80;99.90;;;;;;4995686;28;20660;-78
2021/01/18 10:07:55;;;;;;;17.25;10.65;;;14.20;99.90;;;;;;5002948;28;20735;-77
2021/01/18 10:10:21;;;;;;;18.60;9.65;;;14.80;99.90;;;;;;5009372;28;20212;-79
2021/01/18 10:12:54;;;;;;;18.00;10.20;;;15.50;99.90;;;;;;5013001;28;20204;-77
2021/01/18 10:15:26;;;;;;;16.75;10.20;;;15.00;99.90;;;;;;5015616;28;20290;-78
2021/01/18 10:17:56;;;;;;;14.13;9.65;;;15.60;99.90;;;;;;5010463;28;20310;-77
2021/01/18 10:20:27;;;;;;;19.23;10.60;;;15.30;99.90;;;;;;5011337;28;20212;-79
2021/01/18 10:22:56;;;;;;;13.30;9.13;;;16.00;99.90;;;;;;5010676;28;20208;-76
2021/01/18 10:25:27;;;;;;;19.25;9.90;;;14.20;99.90;;;;;;5004856;28;20203;-78
2021/01/18 10:27:56;;;;;;;16.83;8.70;;;13.70;99.90;;;;;;5008780;28;20236;-78
2021/01/18 10:30:26;;;;;;;18.13;10.40;;;14.70;99.90;;;;;;5007895;28;20212;-77
2021/01/18 10:32:54;;;;;;;15.25;8.85;;;15.70;99.90;;;;;;5017550;28;20238;-78
2021/01/18 10:35:23;;;;;;;14.15;10.30;;;14.20;99.90;;;;;;5019087;28;20261;-79
2021/01/18 10:37:50;;;;;;;18.67;9.90;;;9.70;99.90;;;;;;5011102;28;20216;-78
2021/01/18 10:40:22;;;;;;;16.43;11.10;;;7.50;99.90;;;;;;5010083;28;20204;-77
2021/01/18 10:42:50;;;;;;;15.90;12.57;;;6.70;99.90;;;;;;5013621;28;20226;-77
2021/01/18 10:45:18;;;;;;;18.43;11.10;;;6.50;99.90;;;;;;5012461;28;20204;-78
2021/01/18 10:47:54;;;;;;;18.73;11.83;;;6.60;99.90;;;;;;5013800;28;20278;-78
2021/01/18 10:50:25;;;;;;;16.83;11.33;;;6.70;99.90;;;;;;5002777;28;20208;-79
2021/01/18 10:53:01;;;;;;;19.53;12.87;;;6.70;99.90;;;;;;5011049;28;20203;-79
2021/01/18 10:55:28;;;;;;;19.17;11.63;;;6.80;99.90;;;;;;5008130;28;20211;-79
2021/01/18 10:57:55;;;;;;;18.97;12.83;;;6.80;99.90;;;;;;5009742;28;20255;-79
2021/01/18 11:00:25;;;;;;;21.70;14.57;;;6.90;99.90;;;;;;5017120;28;20208;-78
2021/01/18 11:03:01;;;;;;;22.10;14.73;;;6.90;99.90;;;;;;5014861;28;20208;-79
2021/01/18 11:05:35;;;;;;;29.50;16.80;;;6.80;99.90;;;;;;5015681;28;20286;-79
2021/01/18 11:08:03;;;;;;;28.17;17.07;;;6.80;99.90;;;;;;5012058;28;20243;-79
2021/01/18 11:10:32;;;;;;;34.17;22.77;;;6.90;99.90;;;;;;5010122;28;20204;-79
2021/01/18 11:13:06;;;;;;;32.83;22.03;;;7.00;99.90;;;;;;5012537;28;20199;-79
2021/01/18 11:15:39;;;;;;;33.47;22.27;;;7.10;99.90;;;;;;5010540;28;20211;-79
2021/01/18 11:18:07;;;;;;;32.17;19.60;;;7.10;99.90;;;;;;5008731;28;20647;-79
2021/01/18 11:20:35;;;;;;;30.07;19.97;;;7.10;99.90;;;;;;5010178;28;20668;-77
2021/01/18 11:23:01;;;;;;;26.83;19.90;;;7.20;99.90;;;;;;5018417;28;20204;-78
2021/01/18 11:25:29;;;;;;;33.93;20.10;;;7.20;99.90;;;;;;5010609;28;20199;-78
2021/01/18 11:28:08;;;;;;;27.20;17.57;;;7.20;99.90;;;;;;5009935;28;20319;-77
2021/01/18 11:30:35;;;;;;;28.90;17.87;;;7.20;99.90;;;;;;5010527;28;20196;-76
2021/01/18 11:33:02;;;;;;;26.23;15.57;;;7.30;99.90;;;;;;5009631;28;20731;-76
2021/01/18 11:35:28;;;;;;;24.27;13.27;;;7.30;99.90;;;;;;5014505;28;20211;-77
2021/01/18 11:37:55;;;;;;;22.67;12.23;;;7.40;99.90;;;;;;5009726;28;20208;-75
2021/01/18 11:40:22;;;;;;;26.70;13.33;;;7.40;99.90;;;;;;5010833;28;20200;-74
2021/01/18 11:42:48;;;;;;;21.80;12.47;;;7.30;99.90;;;;;;5010405;28;20212;-75
2021/01/18 11:45:16;;;;;;;21.77;13.57;;;7.30;99.90;;;;;;5013075;28;20219;-75
2021/01/18 11:47:42;;;;;;;18.20;9.60;;;7.20;99.90;;;;;;5017561;28;20239;-79
2021/01/18 11:50:10;;;;;;;19.30;10.73;;;7.20;99.90;;;;;;5010010;28;20216;-75
2021/01/18 11:52:44;;;;;;;9.47;6.10;;;7.40;99.90;;;;;;5002173;28;20209;-76
2021/01/18 11:55:12;;;;;;;10.47;6.17;;;7.60;99.90;;;;;;5007720;28;20200;-76
2021/01/18 11:57:42;;;;;;;14.00;8.83;;;7.60;99.90;;;;;;5015431;28;20208;-76
2021/01/18 12:00:09;;;;;;;17.63;8.10;;;7.80;99.90;;;;;;5012929;28;20239;-76
2021/01/18 12:02:37;;;;;;;10.47;7.40;;;7.90;99.90;;;;;;5012275;28;20212;-77
2021/01/18 12:05:04;;;;;;;10.30;7.53;;;8.00;99.90;;;;;;5013497;28;20219;-76
2021/01/18 12:07:31;;;;;;;14.87;8.27;;;8.10;99.90;;;;;;5013156;28;20594;-77
2021/01/18 12:09:57;;;;;;;11.30;6.53;;;8.20;99.90;;;;;;5014209;28;20262;-77
2021/01/18 12:12:24;;;;;;;12.37;6.10;;;8.20;99.90;;;;;;5013418;28;20216;-77
2021/01/18 12:14:50;;;;;;;10.93;6.27;;;8.20;99.90;;;;;;5013953;28;20215;-77
2021/01/18 12:17:17;;;;;;;9.33;5.50;;;8.20;99.90;;;;;;5019816;28;20211;-77
2021/01/18 12:19:46;;;;;;;6.07;3.17;;;8.20;99.90;;;;;;5013585;28;20212;-77
2021/01/18 12:22:12;;;;;;;8.50;4.80;;;8.20;99.90;;;;;;5025522;28;20675;-77
2021/01/18 12:24:40;;;;;;;11.10;4.47;;;8.20;99.90;;;;;;5013386;28;20212;-78
2021/01/18 12:27:08;;;;;;;8.27;4.03;;;8.30;99.90;;;;;;5012905;28;20303;-77
2021/01/18 12:29:35;;;;;;;5.63;4.20;;;8.30;99.90;;;;;;5011802;28;20567;-77
2021/01/18 12:32:01;;;;;;;6.70;4.37;;;8.20;99.90;;;;;;5012860;28;20208;-77
2021/01/18 12:34:28;;;;;;;10.87;4.60;;;8.20;99.90;;;;;;5013203;28;20212;-77
2021/01/18 12:36:57;;;;;;;10.00;5.07;;;8.00;99.90;;;;;;5012199;28;20675;-77
2021/01/18 12:39:25;;;;;;;9.67;5.83;;;8.00;99.90;;;;;;5008576;28;20216;-79
2021/01/18 12:41:51;;;;;;;4.00;3.60;;;8.20;99.90;;;;;;5013712;28;20219;-76
2021/01/18 12:44:18;;;;;;;6.53;4.10;;;8.40;99.90;;;;;;5013091;28;20216;-76
2021/01/18 12:46:46;;;;;;;9.60;3.53;;;8.30;99.90;;;;;;5010226;28;20215;-76
2021/01/18 12:49:13;;;;;;;7.23;4.20;;;8.30;99.90;;;;;;5010021;28;20208;-77
2021/01/18 12:51:39;;;;;;;8.97;4.10;;;8.40;99.90;;;;;;5025137;28;20208;-77
2021/01/18 12:54:06;;;;;;;10.47;4.37;;;8.20;99.90;;;;;;5004390;28;20209;-77
2021/01/18 12:56:33;;;;;;;6.47;2.50;;;8.30;99.90;;;;;;5007961;28;20304;-77